Weather observations for the past three days for
Ottawa Putnam County Airport
Metric (Imperial)
Date Time (edt) Wind (kph) Vis. (km) Weather Sky Cond. Temperature (ºC) Relative Humidity Wind Chill (°C) Heat Index (°C) Pressure Precipitation (cm)
Air Dwpt 6 hour altimeter (cm) sea level (mb) 1 hr 3 hr 6 hr
Max. Min.
07 05:55 W 13 16.09 Fair CLR 5 2 81% 2 76.07 0.0
07 05:35 W 15 16.09 Fair CLR 5 2 81% 2 76.05 0.0
07 05:15 W 15 16.09 Fair CLR 5 2 81% 2 76.05 0.0
07 04:55 W 15 16.09 Fair CLR 5 2 81% 2 76.05 0.0
07 04:35 W 13 16.09 Fair CLR 6 2 76% 4 76.05 0.0
07 04:15 W 17 16.09 Fair CLR 6 2 76% 3 76.05 0.0
07 03:55 W 17 16.09 Fair CLR 6 3 81% 3 76.05 0.0
07 03:35 W 17 16.09 Fair CLR 6 4 87% 3 76.05 0.0
07 03:15 W 13 16.09 Fair CLR 6 4 87% 4 76.05 0.0
07 02:55 W 9 16.09 Fair CLR 6 4 87% 4 76.05 0.0
07 02:35 W 9 16.09 A Few Clouds FEW075 6 4 87% 4 76.07 0.0
07 02:15 SW 7 16.09 Mostly Cloudy BKN075 7 5 87% 6 76.07 0.0
07 01:55 SW 7 16.09 Overcast OVC075 6 5 11.6 5.8 93% 5 76.07 0.0
07 01:35 SW 9 16.09 Overcast OVC075 6 6 100% 4 76.07 0.0
07 01:15 SW 6 16.09 Overcast OVC075 6 6 100% 76.07 0.0
07 00:55 SW 6 16.09 Overcast SCT065 OVC080 6 6 100% 76.07 0.0
07 00:35 S 6 16.09 Mostly Cloudy SCT065 BKN080 6 5 93% 76.07 0.0
07 00:15 S 6 16.09 Mostly Cloudy BKN065 7 6 93% 76.07 0.0
06 23:55 S 6 16.09 Partly Cloudy SCT075 SCT085 7 6 93% 76.07 0.0
06 23:35 S 6 16.09 Partly Cloudy SCT075 8 6 87% 76.1 0.0
06 23:15 Calm 16.09 Partly Cloudy SCT075 9 5 76% 76.1 0.0
06 22:55 Vrbl 4 16.09 Overcast OVC075 9 5 76% 76.1 0.0
06 22:35 W 6 16.09 Overcast OVC075 9 5 76% 76.12 0.0
06 22:15 SW 7 16.09 Overcast SCT065 OVC075 9 5 76% 8 76.1 0.0
06 21:55 SW 6 16.09 Mostly Cloudy BKN065 BKN080 9 5 76% 76.1 0.0
06 21:35 SW 7 16.09 A Few Clouds FEW065 10 4 67% 9 76.07 0.0
06 21:15 S 7 16.09 A Few Clouds FEW070 10 4 67% 9 76.05 0.0
06 20:55 SW 6 16.09 A Few Clouds FEW070 10 4 67% 76.05 0.0
06 20:35 SW 6 16.09 Fair CLR 10 3 62% 76.05 0.0
06 20:15 SW 7 16.09 Fair CLR 11 3 58% 76.05 0.0
06 19:55 SW 6 16.09 Fair CLR 12 3 13.8 11.5 54% 76.05 0.0
06 19:35 SW 9 16.09 A Few Clouds FEW120 12 2 51% 76.05 0.0
06 19:15 W 11 16.09 Partly Cloudy SCT120 12 1 47% 76.05 0.0
06 18:55 W 11 16.09 Mostly Cloudy BKN120 12 1 47% 76.07 0.0
06 18:35 W 13 16.09 Mostly Cloudy BKN120 12 1 47% 76.05 0.0
06 18:15 W 15 16.09 Mostly Cloudy BKN110 12 2 51% 76.05 0.0
06 17:55 W 19 16.09 Overcast OVC100 12 2 51% 76.05 0.0
06 17:35 NW 22 16.09 Overcast OVC100 12 0 44% 76.05 0.0
06 17:15 NW 19 16.09 Overcast OVC100 12 1 47% 76.02 0.0
06 16:55 NW 19 16.09 Mostly Cloudy BKN100 12 0 44% 76.02 0.0
06 16:35 W 17 16.09 Overcast OVC100 12 1 47% 76.02 0.0
06 16:15 W 13 16.09 Overcast OVC100 12 1 47% 76.02 0.0
06 15:55 W 13 16.09 Overcast OVC100 12 1 47% 76.02 0.0
06 15:35 NW 20 16.09 Overcast OVC100 12 0 44% 76.02 0.0
06 15:15 W 20 16.09 Mostly Cloudy BKN100 13 1 44% 76.02 0.0
06 14:55 NW 15 16.09 Mostly Cloudy BKN100 13 1 44% 76.02 0.0
06 14:35 W 20 G 28 16.09 Partly Cloudy SCT110 13 1 44% 76.02 0.0
06 14:15 NW 17 16.09 Mostly Cloudy BKN120 14 1 41% 76 0.0
06 13:55 W 19 G 30 16.09 Partly Cloudy SCT120 13 2 13.6 6.9 47% 76.02 0.0
06 13:35 Vrbl 9 16.09 Fair CLR 13 1 44% 76.02 0.0
06 13:15 Vrbl 7 16.09 Fair CLR 13 1 44% 76.02 0.0
06 12:55 NW 17 16.09 Fair CLR 13 2 47% 76.05 0.0
06 12:35 NW 13 16.09 Fair CLR 13 2 47% 76.05 0.0
06 12:15 NW 15 16.09 Fair CLR 12 2 51% 76.05 0.0
06 11:55 NW 17 G 28 16.09 Fair CLR 12 2 51% 76.05 0.0
06 11:35 NW 17 16.09 Fair CLR 12 2 51% 76.02 0.0
06 11:15 NW 15 16.09 Fair CLR 12 3 54% 76.02 0.0
06 10:55 NW 15 16.09 Fair CLR 11 2 54% 76 0.0
06 10:35 N 20 16.09 Fair CLR 11 3 58% 75.97 0.0
06 10:15 N 22 16.09 Fair CLR 11 3 58% 75.97 0.0
06 09:55 N 17 16.09 Fair CLR 10 4 67% 8 75.95 0.0
06 09:35 NW 19 16.09 Fair CLR 10 4 67% 8 75.95 0.0
06 09:15 NW 15 16.09 Mostly Cloudy BKN080 9 6 82% 7 75.95 0.0
06 08:55 NW 13 16.09 Overcast OVC080 9 7 87% 7 75.92 0.0
06 08:35 NW 11 16.09 Overcast OVC080 8 6 87% 6 75.9 0.0
06 08:15 W 15 16.09 Mostly Cloudy BKN080 8 7 93% 6 75.9 0.0
06 07:55 W 13 16.09 Overcast OVC080 7 7 7.6 6.6 100% 5 75.87 0.0
06 07:35 NW 11 16.09 Overcast OVC080 7 7 100% 5 75.82 0.0
06 07:15 W 11 16.09 Overcast BKN080 OVC100 7 7 100% 5 75.82 0.0
06 06:55 W 9 16.09 Overcast BKN070 OVC080 7 7 100% 5 75.82 0.0
06 06:35 W 7 16.09 Overcast OVC070 7 7 100% 6 75.79 0.0
06 06:15 W 9 16.09 Overcast OVC060 7 7 100% 5 75.77 0.0
06 05:55 NW 9 16.09 Overcast BKN060 OVC070 7 7 100% 5 75.74 0.0
06 05:35 W 9 16.09 Overcast OVC060 7 7 100% 5 75.74 0.0
06 05:15 W 6 16.09 Overcast OVC060 7 7 100% 75.74 0.0
06 04:55 NW 7 16.09 Overcast OVC060 7 7 100% 6 75.74 0.0 0.03
06 04:35 W 2 16.09 Light Rain FEW035 FEW043 OVC050 7 6 93% 75.74 0.0
06 04:15 NW 4 16.09 Light Rain SCT044 BKN055 OVC070 7 6 93% 75.74 0.0
06 03:55 W 4 16.09 Light Rain FEW042 BKN055 OVC070 7 7 100% 75.77 0.0 0.05
06 03:35 NW 9 16.09 Light Rain FEW040 SCT047 OVC055 7 7 100% 5 75.72 0.0
06 03:15 NW 7 12.87 Light Rain SCT040 BKN050 OVC065 7 7 100% 6 75.74 0.0
06 02:55 W 6 11.27 Light Rain FEW044 OVC049 7 7 100% 75.77 0.0 0.15
06 02:35 W 7 11.27 Light Rain OVC049 7 7 100% 6 75.77 0.0
06 02:15 NW 6 9.66 Light Rain Fog/Mist OVC047 7 7 100% 75.74 0.0
06 01:55 W 7 16.09 Light Rain OVC045 8 8 9.1 7.3 100% 7 75.77 0.0 0.18
06 01:35 NW 6 6.44 Light Rain Fog/Mist OVC045 8 8 100% 75.74 0.0
06 01:15 Calm 6.44 Light Rain Fog/Mist OVC043 8 8 100% 75.74 0.0
06 00:55 Calm 8.05 Light Rain Fog/Mist OVC043 7 7 100% 75.77 0.0 0.23
06 00:35 N 6 8.05 Light Rain Fog/Mist SCT010 SCT017 OVC043 7 7 100% 75.77 0.0
06 00:15 Vrbl 9 8.05 Light Rain Fog/Mist SCT010 BKN028 OVC041 8 8 100% 7 75.74 0.0
05 23:55 SW 2 8.05 Light Rain Fog/Mist OVC041 8 8 100% 75.77 0.0 0.18
05 23:35 SW 6 8.05 Light Rain Fog/Mist BKN039 OVC060 8 8 100% 75.77 0.0
05 23:15 SW 2 8.05 Light Rain Fog/Mist BKN041 OVC060 9 8 94% 75.77 0.0
05 22:55 NW 2 11.27 Light Rain BKN041 OVC060 9 8 94% 75.77 0.0 0.13
05 22:35 N 2 6.44 Light Rain Fog/Mist SCT041 BKN050 OVC070 9 8 94% 75.77 0.0
05 22:15 Calm 9.66 Light Rain Fog/Mist FEW050 BKN060 OVC070 9 9 100% 75.74 0.0
05 21:55 Vrbl 6 4.83 Light Rain Fog/Mist FEW042 OVC060 9 9 100% 75.74 0.0 0.2
05 21:35 Vrbl 2 6.44 Light Rain Fog/Mist BKN042 OVC050 9 9 100% 75.77 0.0
05 21:15 W 6 8.05 Light Rain Fog/Mist BKN044 OVC050 9 9 100% 75.74 0.0
05 20:55 NW 6 4.83 Light Rain Fog/Mist OVC042 9 9 100% 75.72 0.0 0.25
05 20:35 W 6 4.83 Light Rain Fog/Mist OVC040 9 9 100% 75.72 0.0
05 20:15 NW 6 4.83 Light Rain Fog/Mist OVC038 9 9 100% 75.72 0.0
05 19:55 W 6 4.02 Light Rain Fog/Mist OVC038 9 9 11.5 8.8 100% 75.72 0.0 0.23
05 19:35 NW 7 4.02 Light Rain Fog/Mist OVC034 9 9 100% 8 75.69 0.0
05 19:15 NW 6 4.83 Light Rain Fog/Mist BKN030 OVC035 9 9 100% 75.72 0.0
05 18:55 W 7 6.44 Light Rain Fog/Mist OVC028 10 10 100% 9 75.72 0.0 0.03
05 18:35 NW 13 9.66 Light Rain Fog/Mist FEW009 OVC026 10 10 100% 8 75.72 0.0
05 18:15 N 13 16.09 Overcast SCT011 OVC024 10 9 94% 8 75.69 0.0
05 17:55 N 19 12.87 Light Drizzle FEW008 BKN011 OVC022 10 9 94% 8 75.69 0.0 0.15
05 17:35 N 9 9.66 Light Rain Fog/Mist FEW007 SCT011 OVC024 10 10 100% 9 75.67 0.0
05 17:15 N 17 6.44 Light Rain Fog/Mist BKN009 BKN013 OVC026 10 10 100% 8 75.67 0.0
05 16:55 N 15 4.02 Rain Fog/Mist BKN011 OVC021 10 10 100% 8 75.69 0.0 0.3
05 16:35 NW 17 4.02 Light Rain Fog/Mist SCT011 OVC021 10 10 100% 8 75.67 0.0
05 16:15 NW 19 4.02 Light Rain Fog/Mist BKN011 OVC021 11 11 100% 75.67 0.0
05 15:55 NW 17 6.44 Light Rain Fog/Mist OVC021 11 11 100% 75.67 0.0 0.15
05 15:35 N 11 9.66 Light Rain Fog/Mist BKN021 BKN065 OVC080 11 10 94% 75.67 0.0
05 15:15 NW 15 4.83 Light Rain Fog/Mist SCT007 BKN012 OVC021 11 10 94% 75.69 0.0
05 14:55 NW 11 4.02 Light Rain Fog/Mist SCT009 BKN021 OVC046 11 11 100% 75.72 0.0 0.2
05 14:35 W 9 6.44 Light Rain Fog/Mist FEW021 SCT030 OVC046 11 11 100% 75.69 0.0
05 14:15 SW 6 6.44 Light Rain Fog/Mist OVC046 11 9 88% 75.69 0.0
05 13:55 W 7 6.44 Light Rain Haze OVC050 11 9 17.2 11.5 88% 75.67 0.0 0.13
05 13:35 W 7 6.44 Light Rain Haze BKN050 BKN060 BKN080 12 8 77% 75.67 0.0
05 13:15 W 9 12.87 Light Rain SCT048 SCT060 BKN085 12 9 82% 75.67 0.0
05 12:55 W 9 11.27 Light Rain SCT032 SCT046 BKN085 13 9 77% 75.67 0.0 0.03
05 12:35 NW 13 11.27 Light Rain Haze FEW021 SCT027 OVC032 13 9 77% 75.69 0.0
05 12:15 NW 19 16.09 Light Rain BKN021 OVC028 14 10 77% 75.69 0.0
05 11:55 W 22 16.09 Overcast OVC026 16 12 77% 75.67 0.0
05 11:35 W 19 16.09 Overcast OVC026 16 12 77% 75.67 0.0
05 11:15 W 26 G 33 16.09 Overcast OVC024 16 12 77% 75.64 0.0
05 10:55 W 31 G 50 16.09 Overcast OVC024 16 12 77% 75.64 0.0
05 10:35 W 28 G 41 16.09 Overcast BKN024 OVC029 16 12 77% 75.59 0.0
05 10:15 W 37 G 46 16.09 Overcast and Breezy OVC024 16 12 77% 75.57 0.0
05 09:55 SW 28 G 35 16.09 Mostly Cloudy BKN022 BKN028 17 12 73% 75.51 0.0
05 09:35 SW 31 G 41 16.09 A Few Clouds FEW022 17 13 77% 75.49 0.0
05 09:15 SW 26 G 33 16.09 Fair CLR 16 12 77% 75.49 0.0
05 08:55 SW 26 G 33 16.09 Fair CLR 16 12 77% 75.49 0.0
05 08:35 SW 28 G 37 16.09 Fair CLR 15 12 82% 75.51 0.0
05 08:15 SW 22 G 31 16.09 Fair CLR 15 12 82% 75.51 0.0
05 07:55 SW 20 G 30 16.09 Fair CLR 14 12 18.3 13.7 88% 75.49 0.0
05 07:35 SW 22 G 30 16.09 Fair CLR 14 12 88% 75.49 0.0
05 07:15 SW 19 16.09 Fair CLR 14 12 88% 75.41 0.0
05 06:55 SW 20 16.09 Fair CLR 14 12 88% 75.39 0.0
05 06:35 SW 19 16.09 Fair CLR 14 12 88% 75.34 0.0
05 06:15 SW 17 16.09 Fair CLR 14 12 88% 75.34 0.0
05 05:55 SW 15 16.09 Fair CLR 14 13 94% 75.31 0.0
05 05:35 SW 17 16.09 A Few Clouds FEW120 14 13 94% 75.34 0.0
05 05:15 SW 19 16.09 Fair CLR 14 13 94% 75.36 0.0
05 04:55 SW 24 16.09 Fair CLR 14 13 94% 75.36 0.0
05 04:35 SW 20 G 31 16.09 Fair CLR 14 13 94% 75.31 0.0
05 04:15 SW 19 16.09 Mostly Cloudy SCT070 SCT080 BKN110 14 13 94% 75.31 0.0
05 03:55 SW 22 G 41 11.27 Light Rain BKN070 OVC080 15 12 82% 75.31 0.0
05 03:35 SW 28 G 43 16.09 Overcast SCT070 BKN080 OVC085 17 11 68% 75.36 0.0
05 03:15 W 30 16.09 Overcast OVC060 17 11 68% 75.34 0.0
05 02:55 SW 22 16.09 Overcast OVC070 17 11 68% 75.31 0.0
05 02:35 SW 13 16.09 Overcast OVC070 17 11 68% 75.31 0.0
05 02:15 W 15 16.09 Mostly Cloudy BKN070 BKN090 17 11 68% 75.34 0.0
05 01:55 W 19 16.09 Mostly Cloudy BKN070 BKN090 18 11 22.9 18.3 64% 75.31 0.0
05 01:35 W 19 G 28 16.09 Overcast BKN070 BKN090 OVC110 19 11 60% 75.29 0.0
05 01:15 SW 24 G 37 16.09 Overcast OVC080 20 10 53% 75.26 0.0
05 00:55 S 31 16.09 Mostly Cloudy BKN080 BKN090 20 10 53% 75.21 0.0
05 00:35 SW 28 G 37 16.09 Mostly Cloudy SCT080 BKN095 BKN110 20 10 53% 75.23 0.0
05 00:15 SW 22 16.09 Mostly Cloudy BKN080 BKN110 20 11 56% 75.23 0.0
04 23:55 SW 24 16.09 Overcast BKN080 OVC090 20 11 56% 75.26 0.0
04 23:35 S 22 16.09 Mostly Cloudy BKN100 20 11 56% 75.26 0.0
04 23:15 S 20 G 33 16.09 Overcast OVC090 20 11 56% 75.26 0.0
04 22:55 S 20 16.09 Overcast OVC090 20 11 56% 75.29 0.0
04 22:35 S 20 16.09 Mostly Cloudy BKN080 19 11 60% 75.29 0.0
04 22:15 S 17 16.09 A Few Clouds FEW080 20 11 56% 75.26 0.0
04 21:55 S 17 16.09 Partly Cloudy SCT110 20 11 56% 75.26 0.0
04 21:35 S 19 16.09 Overcast OVC100 20 11 56% 75.26 0.0
04 21:15 S 24 G 31 16.09 Overcast OVC100 21 10 50% 75.26 0.0
04 20:55 SW 22 G 33 16.09 Overcast OVC100 21 10 50% 75.26 0.0
04 20:35 SW 33 G 41 16.09 Mostly Cloudy and Breezy BKN100 21 10 50% 75.23 0.0
04 20:15 SW 28 G 41 16.09 Partly Cloudy SCT100 22 10 47% 75.23 0.0
04 19:55 SW 39 G 46 16.09 Fair and Breezy CLR 23 9 26.2 22.9 41% 75.23 0.0
04 19:35 SW 39 G 48 16.09 Fair and Breezy CLR 24 9 39% 25 75.23 0.0
04 19:15 SW 33 G 70 16.09 Fair and Breezy CLR 24 8 36% 25 75.23 0.0
04 18:55 SW 33 G 52 16.09 Fair and Breezy CLR 24 9 39% 25 75.23 0.0
04 18:35 SW 39 G 54 16.09 A Few Clouds and Breezy FEW100 25 9 36% 26 75.23 0.0
04 18:15 SW 37 G 54 16.09 A Few Clouds and Breezy FEW100 25 9 36% 26 75.23 0.0
04 17:55 SW 37 G 50 16.09 A Few Clouds and Breezy FEW100 26 10 37% 26 75.23 0.0
04 17:35 SW 44 G 56 16.09 Partly Cloudy and Windy SCT100 25 10 39% 26 75.21 0.0
04 17:15 SW 41 G 63 16.09 Partly Cloudy and Breezy FEW070 FEW080 SCT110 26 10 37% 26 75.23 0.0
04 16:55 SW 35 G 57 16.09 Mostly Cloudy and Breezy SCT070 BKN080 BKN110 25 11 42% 26 75.23 0.0
04 16:35 SW 43 G 56 16.09 Mostly Cloudy and Windy BKN070 BKN080 24 11 44% 25 75.26 0.0
04 16:15 SW 44 G 59 16.09 Mostly Cloudy and Windy BKN070 BKN080 BKN100 25 10 39% 26 75.26 0.0
04 15:55 SW 35 G 56 16.09 Mostly Cloudy and Breezy SCT060 BKN080 BKN100 25 10 39% 26 75.29 0.0
04 15:35 SW 31 G 54 16.09 Mostly Cloudy SCT060 BKN075 BKN100 26 11 39% 26 75.29 0.0
04 15:15 SW 37 G 52 16.09 Overcast and Breezy FEW060 SCT075 OVC100 24 11 44% 25 75.31 0.0
04 14:55 SW 35 G 44 16.09 Mostly Cloudy and Breezy FEW060 BKN100 25 11 42% 26 75.34 0.0
04 14:35 SW 33 G 41 16.09 Partly Cloudy and Breezy SCT100 25 11 42% 26 75.36 0.0
04 14:15 SW 28 G 43 16.09 Fair CLR 24 11 44% 25 75.39 0.0
04 13:55 SW 26 G 46 16.09 Fair CLR 24 10 23.5 11.9 41% 25 75.39 0.0
04 13:35 S 26 G 37 16.09 Fair CLR 23 10 44% 75.41 0.0
04 13:15 S 28 G 35 16.09 Fair CLR 22 10 47% 75.44 0.0
04 12:55 S 22 G 33 16.09 Fair CLR 22 10 47% 75.46 0.0
04 12:35 S 26 16.09 Fair CLR 22 10 47% 75.49 0.0
04 12:15 SW 30 G 43 16.09 Fair CLR 21 9 46% 75.49 0.0
04 11:55 SW 28 G 33 16.09 Fair CLR 20 9 49% 75.51 0.0
04 11:35 SW 24 16.09 Fair CLR 19 9 52% 75.54 0.0
04 11:15 SW 22 16.09 Fair CLR 19 9 52% 75.54 0.0
04 10:55 SW 22 16.09 Fair CLR 18 9 56% 75.54 0.0
04 10:35 SW 22 16.09 Fair CLR 18 8 52% 75.54 0.0
04 10:15 SW 24 16.09 Fair CLR 17 8 56% 75.54 0.0
04 09:55 SW 24 16.09 Fair CLR 16 8 59% 75.54 0.0
04 09:35 SW 24 16.09 Fair CLR 16 7 55% 75.57 0.0
04 09:15 SW 24 G 35 16.09 Fair CLR 15 7 59% 75.59 0.0
04 08:55 SW 28 16.09 Fair CLR 14 7 63% 75.59 0.0
04 08:35 SW 24 G 33 16.09 Fair CLR 14 7 63% 75.59 0.0
04 08:15 SW 20 G 28 16.09 Fair CLR 13 6 63% 75.59 0.0
04 07:55 SW 20 G 31 16.09 Fair CLR 12 6 11.9 10.2 67% 75.62 0.0
04 07:35 S 22 16.09 Fair CLR 11 6 72% 75.59 0.0
04 07:15 SW 20 16.09 Fair CLR 11 5 67% 75.59 0.0
04 06:55 SW 17 16.09 A Few Clouds FEW085 10 5 71% 8 75.59 0.0
04 06:35 S 19 16.09 A Few Clouds FEW085 10 5 71% 8 75.59 0.0
04 06:15 S 20 16.09 Fair CLR 10 5 71% 8 75.59 0.0
Date Time (edt) Wind (kph) Vis. (km) Weather Sky Cond. Air Dwpt Max. Min. Relative Humidity Wind Chill (°C) Heat Index (°C) altimeter (cm) sea level (mb) 1 hr 3 hr 6 hr
6 hour
Temperature (ºC) Pressure Precipitation (cm)